sensor_id;sensor_type;location;lat;lon;timestamp;P1;durP1;ratioP1;P2;durP2;ratioP2
78618;SDS011;67941;52.506;5.470;2023-03-01T00:00:13;3.30;;;2.00;;
78618;SDS011;67941;52.506;5.470;2023-03-01T00:02:42;3.20;;;1.95;;
78618;SDS011;67941;52.506;5.470;2023-03-01T00:05:11;2.92;;;1.83;;
78618;SDS011;67941;52.506;5.470;2023-03-01T00:07:40;4.32;;;2.53;;
78618;SDS011;67941;52.506;5.470;2023-03-01T00:10:09;4.00;;;2.28;;
78618;SDS011;67941;52.506;5.470;2023-03-01T00:12:39;4.82;;;2.20;;
78618;SDS011;67941;52.506;5.470;2023-03-01T00:15:08;4.60;;;2.47;;
78618;SDS011;67941;52.506;5.470;2023-03-01T00:17:39;2.47;;;1.00;;
78618;SDS011;67941;52.506;5.470;2023-03-01T00:20:09;5.57;;;2.65;;
78618;SDS011;67941;52.506;5.470;2023-03-01T00:22:39;2.97;;;1.75;;
78618;SDS011;67941;52.506;5.470;2023-03-01T00:25:08;2.75;;;1.48;;
78618;SDS011;67941;52.506;5.470;2023-03-01T00:27:37;2.17;;;1.55;;
78618;SDS011;67941;52.506;5.470;2023-03-01T00:30:07;2.53;;;1.38;;
78618;SDS011;67941;52.506;5.470;2023-03-01T00:32:39;1.85;;;1.27;;
78618;SDS011;67941;52.506;5.470;2023-03-01T00:35:08;1.30;;;1.08;;
78618;SDS011;67941;52.506;5.470;2023-03-01T00:37:37;2.40;;;1.63;;
78618;SDS011;67941;52.506;5.470;2023-03-01T00:40:07;1.65;;;1.30;;
78618;SDS011;67941;52.506;5.470;2023-03-01T00:42:37;1.48;;;1.02;;
78618;SDS011;67941;52.506;5.470;2023-03-01T00:45:07;1.02;;;0.55;;
78618;SDS011;67941;52.506;5.470;2023-03-01T00:47:36;1.98;;;1.05;;
78618;SDS011;67941;52.506;5.470;2023-03-01T00:50:08;5.30;;;2.50;;
78618;SDS011;67941;52.506;5.470;2023-03-01T00:52:39;2.25;;;1.65;;
78618;SDS011;67941;52.506;5.470;2023-03-01T00:55:08;1.70;;;1.38;;
78618;SDS011;67941;52.506;5.470;2023-03-01T00:57:37;0.70;;;0.57;;
78618;SDS011;67941;52.506;5.470;2023-03-01T01:00:06;2.25;;;1.25;;
78618;SDS011;67941;52.506;5.470;2023-03-01T01:02:37;1.45;;;1.20;;
78618;SDS011;67941;52.506;5.470;2023-03-01T01:05:09;1.08;;;0.88;;
78618;SDS011;67941;52.506;5.470;2023-03-01T01:07:38;1.83;;;1.35;;
78618;SDS011;67941;52.506;5.470;2023-03-01T01:10:08;1.38;;;0.90;;
78618;SDS011;67941;52.506;5.470;2023-03-01T01:12:38;2.08;;;1.35;;
78618;SDS011;67941;52.506;5.470;2023-03-01T01:15:07;1.75;;;1.27;;
78618;SDS011;67941;52.506;5.470;2023-03-01T01:17:38;1.83;;;1.40;;
78618;SDS011;67941;52.506;5.470;2023-03-01T01:20:10;2.28;;;1.95;;
78618;SDS011;67941;52.506;5.470;2023-03-01T01:22:40;3.33;;;1.77;;
78618;SDS011;67941;52.506;5.470;2023-03-01T01:25:10;2.00;;;1.40;;
78618;SDS011;67941;52.506;5.470;2023-03-01T01:27:39;3.88;;;2.42;;
78618;SDS011;67941;52.506;5.470;2023-03-01T01:30:08;3.75;;;2.17;;
78618;SDS011;67941;52.506;5.470;2023-03-01T01:32:38;2.63;;;1.75;;
78618;SDS011;67941;52.506;5.470;2023-03-01T01:35:10;2.47;;;1.50;;
78618;SDS011;67941;52.506;5.470;2023-03-01T01:37:38;4.45;;;2.45;;
78618;SDS011;67941;52.506;5.470;2023-03-01T01:40:08;5.07;;;2.72;;
78618;SDS011;67941;52.506;5.470;2023-03-01T01:42:38;2.78;;;2.15;;
78618;SDS011;67941;52.506;5.470;2023-03-01T01:45:24;1.60;;;1.15;;
78618;SDS011;67941;52.506;5.470;2023-03-01T01:47:57;1.85;;;1.67;;
78618;SDS011;67941;52.506;5.470;2023-03-01T01:50:32;3.72;;;1.90;;
78618;SDS011;67941;52.506;5.470;2023-03-01T01:53:07;5.00;;;2.55;;
78618;SDS011;67941;52.506;5.470;2023-03-01T01:55:40;3.22;;;1.95;;
78618;SDS011;67941;52.506;5.470;2023-03-01T01:58:13;2.75;;;2.08;;
78618;SDS011;67941;52.506;5.470;2023-03-01T02:00:46;1.65;;;1.23;;
78618;SDS011;67941;52.506;5.470;2023-03-01T02:03:17;1.38;;;0.93;;
78618;SDS011;67941;52.506;5.470;2023-03-01T02:05:53;1.95;;;1.27;;
78618;SDS011;67941;52.506;5.470;2023-03-01T02:08:28;1.15;;;1.00;;
78618;SDS011;67941;52.506;5.470;2023-03-01T02:10:58;2.63;;;2.28;;
78618;SDS011;67941;52.506;5.470;2023-03-01T02:13:30;0.88;;;0.57;;
78618;SDS011;67941;52.506;5.470;2023-03-01T02:16:00;1.58;;;1.33;;
78618;SDS011;67941;52.506;5.470;2023-03-01T02:18:33;2.40;;;1.00;;
78618;SDS011;67941;52.506;5.470;2023-03-01T02:21:08;4.50;;;2.88;;
78618;SDS011;67941;52.506;5.470;2023-03-01T02:23:45;4.07;;;2.40;;
78618;SDS011;67941;52.506;5.470;2023-03-01T02:26:18;7.13;;;4.45;;
78618;SDS011;67941;52.506;5.470;2023-03-01T02:28:53;2.13;;;1.63;;
78618;SDS011;67941;52.506;5.470;2023-03-01T02:31:22;3.25;;;2.33;;
78618;SDS011;67941;52.506;5.470;2023-03-01T02:34:04;3.20;;;2.20;;
78618;SDS011;67941;52.506;5.470;2023-03-01T02:36:35;6.07;;;3.13;;
78618;SDS011;67941;52.506;5.470;2023-03-01T02:39:07;6.13;;;3.10;;
78618;SDS011;67941;52.506;5.470;2023-03-01T02:41:41;7.78;;;3.85;;
78618;SDS011;67941;52.506;5.470;2023-03-01T02:44:16;5.78;;;2.90;;
78618;SDS011;67941;52.506;5.470;2023-03-01T02:46:46;5.38;;;3.45;;
78618;SDS011;67941;52.506;5.470;2023-03-01T02:49:20;1.90;;;1.58;;
78618;SDS011;67941;52.506;5.470;2023-03-01T02:52:09;1.95;;;1.67;;
78618;SDS011;67941;52.506;5.470;2023-03-01T02:54:58;3.05;;;1.95;;
78618;SDS011;67941;52.506;5.470;2023-03-01T02:57:31;1.27;;;1.05;;
78618;SDS011;67941;52.506;5.470;2023-03-01T03:00:05;1.40;;;1.30;;
78618;SDS011;67941;52.506;5.470;2023-03-01T03:02:36;2.35;;;1.77;;
78618;SDS011;67941;52.506;5.470;2023-03-01T03:05:15;2.55;;;1.33;;
78618;SDS011;67941;52.506;5.470;2023-03-01T03:07:46;2.90;;;1.45;;
78618;SDS011;67941;52.506;5.470;2023-03-01T03:10:17;3.20;;;2.22;;
78618;SDS011;67941;52.506;5.470;2023-03-01T03:12:49;3.05;;;1.98;;
78618;SDS011;67941;52.506;5.470;2023-03-01T03:15:21;1.13;;;1.02;;
78618;SDS011;67941;52.506;5.470;2023-03-01T03:17:53;2.63;;;1.52;;
78618;SDS011;67941;52.506;5.470;2023-03-01T03:20:24;1.63;;;0.77;;
78618;SDS011;67941;52.506;5.470;2023-03-01T03:22:54;2.15;;;1.58;;
78618;SDS011;67941;52.506;5.470;2023-03-01T03:25:25;1.73;;;1.52;;
78618;SDS011;67941;52.506;5.470;2023-03-01T03:27:56;2.63;;;2.00;;
78618;SDS011;67941;52.506;5.470;2023-03-01T03:30:29;2.33;;;1.85;;
78618;SDS011;67941;52.506;5.470;2023-03-01T03:32:59;1.63;;;1.20;;
78618;SDS011;67941;52.506;5.470;2023-03-01T03:35:29;3.63;;;2.30;;
78618;SDS011;67941;52.506;5.470;2023-03-01T03:38:00;2.28;;;1.48;;
78618;SDS011;67941;52.506;5.470;2023-03-01T03:40:41;2.05;;;1.35;;
78618;SDS011;67941;52.506;5.470;2023-03-01T03:43:12;5.15;;;2.95;;
78618;SDS011;67941;52.506;5.470;2023-03-01T03:45:46;4.15;;;2.67;;
78618;SDS011;67941;52.506;5.470;2023-03-01T03:48:16;2.35;;;1.63;;
78618;SDS011;67941;52.506;5.470;2023-03-01T03:50:47;3.72;;;2.45;;
78618;SDS011;67941;52.506;5.470;2023-03-01T03:53:17;2.65;;;2.05;;
78618;SDS011;67941;52.506;5.470;2023-03-01T03:55:47;3.80;;;2.55;;
78618;SDS011;67941;52.506;5.470;2023-03-01T03:58:17;1.35;;;1.00;;
78618;SDS011;67941;52.506;5.470;2023-03-01T04:00:51;2.08;;;1.88;;
78618;SDS011;67941;52.506;5.470;2023-03-01T04:03:22;2.25;;;1.50;;
78618;SDS011;67941;52.506;5.470;2023-03-01T04:05:53;2.63;;;2.40;;
78618;SDS011;67941;52.506;5.470;2023-03-01T04:08:24;1.60;;;1.10;;
78618;SDS011;67941;52.506;5.470;2023-03-01T04:10:57;5.22;;;2.67;;
78618;SDS011;67941;52.506;5.470;2023-03-01T04:13:47;2.92;;;1.90;;
78618;SDS011;67941;52.506;5.470;2023-03-01T04:16:19;3.50;;;2.13;;
78618;SDS011;67941;52.506;5.470;2023-03-01T04:18:48;2.97;;;1.75;;
78618;SDS011;67941;52.506;5.470;2023-03-01T04:21:18;6.25;;;3.20;;
78618;SDS011;67941;52.506;5.470;2023-03-01T04:23:48;4.10;;;2.72;;
78618;SDS011;67941;52.506;5.470;2023-03-01T04:26:17;2.55;;;1.42;;
78618;SDS011;67941;52.506;5.470;2023-03-01T04:28:47;2.22;;;1.27;;
78618;SDS011;67941;52.506;5.470;2023-03-01T04:31:19;7.82;;;2.28;;
78618;SDS011;67941;52.506;5.470;2023-03-01T04:33:49;2.03;;;1.23;;
78618;SDS011;67941;52.506;5.470;2023-03-01T04:36:20;4.38;;;2.80;;
78618;SDS011;67941;52.506;5.470;2023-03-01T04:38:50;1.95;;;1.52;;
78618;SDS011;67941;52.506;5.470;2023-03-01T04:41:20;1.42;;;1.05;;
78618;SDS011;67941;52.506;5.470;2023-03-01T04:43:50;1.25;;;0.98;;
78618;SDS011;67941;52.506;5.470;2023-03-01T04:46:21;3.38;;;2.55;;
78618;SDS011;67941;52.506;5.470;2023-03-01T04:48:50;2.25;;;1.63;;
78618;SDS011;67941;52.506;5.470;2023-03-01T04:51:19;2.83;;;2.10;;
78618;SDS011;67941;52.506;5.470;2023-03-01T04:53:48;3.40;;;1.95;;
78618;SDS011;67941;52.506;5.470;2023-03-01T04:56:17;1.80;;;1.35;;
78618;SDS011;67941;52.506;5.470;2023-03-01T04:58:48;1.52;;;1.13;;
78618;SDS011;67941;52.506;5.470;2023-03-01T05:01:17;3.75;;;2.03;;
78618;SDS011;67941;52.506;5.470;2023-03-01T05:03:50;1.60;;;1.38;;
78618;SDS011;67941;52.506;5.470;2023-03-01T05:06:20;2.15;;;1.60;;
78618;SDS011;67941;52.506;5.470;2023-03-01T05:08:49;1.73;;;1.33;;
78618;SDS011;67941;52.506;5.470;2023-03-01T05:11:18;2.55;;;1.67;;
78618;SDS011;67941;52.506;5.470;2023-03-01T05:13:46;2.08;;;1.63;;
78618;SDS011;67941;52.506;5.470;2023-03-01T05:16:20;3.10;;;1.95;;
78618;SDS011;67941;52.506;5.470;2023-03-01T05:18:51;1.50;;;1.08;;
78618;SDS011;67941;52.506;5.470;2023-03-01T05:23:50;5.80;;;3.15;;
78618;SDS011;67941;52.506;5.470;2023-03-01T05:26:20;3.70;;;2.13;;
78618;SDS011;67941;52.506;5.470;2023-03-01T05:28:54;3.70;;;2.88;;
78618;SDS011;67941;52.506;5.470;2023-03-01T05:31:24;6.40;;;2.38;;
78618;SDS011;67941;52.506;5.470;2023-03-01T05:33:56;5.07;;;3.35;;
78618;SDS011;67941;52.506;5.470;2023-03-01T05:36:24;3.17;;;2.13;;
78618;SDS011;67941;52.506;5.470;2023-03-01T05:38:53;3.30;;;2.08;;
78618;SDS011;67941;52.506;5.470;2023-03-01T05:41:22;3.22;;;1.85;;
78618;SDS011;67941;52.506;5.470;2023-03-01T05:43:51;1.13;;;1.02;;
78618;SDS011;67941;52.506;5.470;2023-03-01T05:46:20;3.70;;;2.10;;
78618;SDS011;67941;52.506;5.470;2023-03-01T05:48:49;5.20;;;2.05;;
78618;SDS011;67941;52.506;5.470;2023-03-01T05:51:21;3.50;;;1.95;;
78618;SDS011;67941;52.506;5.470;2023-03-01T05:53:50;12.35;;;3.55;;
78618;SDS011;67941;52.506;5.470;2023-03-01T05:56:18;9.95;;;3.47;;
78618;SDS011;67941;52.506;5.470;2023-03-01T05:58:48;24.90;;;4.43;;
78618;SDS011;67941;52.506;5.470;2023-03-01T06:01:17;15.40;;;3.65;;
78618;SDS011;67941;52.506;5.470;2023-03-01T06:03:45;12.40;;;3.63;;
78618;SDS011;67941;52.506;5.470;2023-03-01T06:06:14;6.18;;;3.30;;
78618;SDS011;67941;52.506;5.470;2023-03-01T06:08:46;3.97;;;2.00;;
78618;SDS011;67941;52.506;5.470;2023-03-01T06:11:15;2.72;;;1.45;;
78618;SDS011;67941;52.506;5.470;2023-03-01T06:13:44;5.72;;;2.78;;
78618;SDS011;67941;52.506;5.470;2023-03-01T06:16:13;4.47;;;2.35;;
78618;SDS011;67941;52.506;5.470;2023-03-01T06:18:42;6.43;;;2.15;;
78618;SDS011;67941;52.506;5.470;2023-03-01T06:21:11;3.25;;;1.90;;
78618;SDS011;67941;52.506;5.470;2023-03-01T06:23:40;3.92;;;2.22;;
78618;SDS011;67941;52.506;5.470;2023-03-01T06:26:11;1.60;;;0.93;;
78618;SDS011;67941;52.506;5.470;2023-03-01T06:28:40;3.38;;;2.10;;
78618;SDS011;67941;52.506;5.470;2023-03-01T06:31:11;4.22;;;2.15;;
78618;SDS011;67941;52.506;5.470;2023-03-01T06:33:40;2.97;;;2.10;;
78618;SDS011;67941;52.506;5.470;2023-03-01T06:36:09;3.20;;;1.65;;
78618;SDS011;67941;52.506;5.470;2023-03-01T06:38:38;2.45;;;1.67;;
78618;SDS011;67941;52.506;5.470;2023-03-01T06:41:08;3.00;;;1.60;;
78618;SDS011;67941;52.506;5.470;2023-03-01T06:43:39;1.58;;;1.02;;
78618;SDS011;67941;52.506;5.470;2023-03-01T06:46:08;4.20;;;2.53;;
78618;SDS011;67941;52.506;5.470;2023-03-01T06:48:37;1.25;;;0.93;;
78618;SDS011;67941;52.506;5.470;2023-03-01T06:51:06;1.48;;;0.95;;
78618;SDS011;67941;52.506;5.470;2023-03-01T06:53:35;1.52;;;1.42;;
78618;SDS011;67941;52.506;5.470;2023-03-01T06:56:04;1.70;;;1.15;;
78618;SDS011;67941;52.506;5.470;2023-03-01T06:58:33;2.08;;;1.25;;
78618;SDS011;67941;52.506;5.470;2023-03-01T07:01:07;1.88;;;1.27;;
78618;SDS011;67941;52.506;5.470;2023-03-01T07:03:37;2.58;;;1.05;;
78618;SDS011;67941;52.506;5.470;2023-03-01T07:06:06;1.73;;;1.23;;
78618;SDS011;67941;52.506;5.470;2023-03-01T07:08:35;2.45;;;1.45;;
78618;SDS011;67941;52.506;5.470;2023-03-01T07:11:04;2.05;;;1.83;;
78618;SDS011;67941;52.506;5.470;2023-03-01T07:13:33;2.13;;;1.33;;
78618;SDS011;67941;52.506;5.470;2023-03-01T07:16:02;2.15;;;1.90;;
78618;SDS011;67941;52.506;5.470;2023-03-01T07:18:34;4.15;;;2.33;;
78618;SDS011;67941;52.506;5.470;2023-03-01T07:21:06;5.95;;;3.15;;
78618;SDS011;67941;52.506;5.470;2023-03-01T07:23:35;1.73;;;1.20;;
78618;SDS011;67941;52.506;5.470;2023-03-01T07:26:04;2.88;;;1.85;;
78618;SDS011;67941;52.506;5.470;2023-03-01T07:28:33;4.60;;;2.75;;
78618;SDS011;67941;52.506;5.470;2023-03-01T07:31:04;2.90;;;2.45;;
78618;SDS011;67941;52.506;5.470;2023-03-01T07:33:37;2.55;;;1.38;;
78618;SDS011;67941;52.506;5.470;2023-03-01T07:36:06;2.17;;;1.60;;
78618;SDS011;67941;52.506;5.470;2023-03-01T07:38:35;1.30;;;0.90;;
78618;SDS011;67941;52.506;5.470;2023-03-01T07:41:04;3.42;;;2.10;;
78618;SDS011;67941;52.506;5.470;2023-03-01T07:43:33;5.00;;;3.17;;
78618;SDS011;67941;52.506;5.470;2023-03-01T07:46:03;6.35;;;3.60;;
78618;SDS011;67941;52.506;5.470;2023-03-01T07:48:32;7.13;;;3.75;;
78618;SDS011;67941;52.506;5.470;2023-03-01T07:51:04;4.60;;;2.38;;
78618;SDS011;67941;52.506;5.470;2023-03-01T07:53:34;3.85;;;2.88;;
78618;SDS011;67941;52.506;5.470;2023-03-01T07:56:03;3.83;;;1.88;;
78618;SDS011;67941;52.506;5.470;2023-03-01T07:58:34;3.10;;;1.75;;
78618;SDS011;67941;52.506;5.470;2023-03-01T08:01:04;4.50;;;2.45;;
78618;SDS011;67941;52.506;5.470;2023-03-01T08:03:33;6.22;;;3.60;;
78618;SDS011;67941;52.506;5.470;2023-03-01T08:06:06;4.55;;;2.58;;
78618;SDS011;67941;52.506;5.470;2023-03-01T08:08:36;6.97;;;2.83;;
78618;SDS011;67941;52.506;5.470;2023-03-01T08:11:05;4.95;;;2.63;;
78618;SDS011;67941;52.506;5.470;2023-03-01T08:13:35;1.42;;;0.60;;
78618;SDS011;67941;52.506;5.470;2023-03-01T08:16:06;2.28;;;1.23;;
78618;SDS011;67941;52.506;5.470;2023-03-01T08:18:36;2.45;;;1.13;;
78618;SDS011;67941;52.506;5.470;2023-03-01T08:21:08;3.80;;;1.92;;
78618;SDS011;67941;52.506;5.470;2023-03-01T08:23:38;4.45;;;2.30;;
78618;SDS011;67941;52.506;5.470;2023-03-01T08:26:08;3.65;;;1.98;;
78618;SDS011;67941;52.506;5.470;2023-03-01T08:28:38;2.30;;;1.33;;
78618;SDS011;67941;52.506;5.470;2023-03-01T08:31:14;2.63;;;1.77;;
78618;SDS011;67941;52.506;5.470;2023-03-01T08:33:45;5.65;;;3.03;;
78618;SDS011;67941;52.506;5.470;2023-03-01T08:36:23;4.00;;;2.20;;
78618;SDS011;67941;52.506;5.470;2023-03-01T08:38:53;5.05;;;2.80;;
78618;SDS011;67941;52.506;5.470;2023-03-01T08:41:23;8.65;;;3.92;;
78618;SDS011;67941;52.506;5.470;2023-03-01T08:43:52;3.08;;;2.00;;
78618;SDS011;67941;52.506;5.470;2023-03-01T08:46:24;3.92;;;2.08;;
78618;SDS011;67941;52.506;5.470;2023-03-01T08:48:53;4.07;;;1.92;;
78618;SDS011;67941;52.506;5.470;2023-03-01T08:51:25;10.43;;;3.97;;
78618;SDS011;67941;52.506;5.470;2023-03-01T08:53:54;3.88;;;2.03;;
78618;SDS011;67941;52.506;5.470;2023-03-01T08:56:23;5.82;;;3.45;;
78618;SDS011;67941;52.506;5.470;2023-03-01T08:58:52;5.60;;;2.20;;
78618;SDS011;67941;52.506;5.470;2023-03-01T09:01:21;11.18;;;4.10;;
78618;SDS011;67941;52.506;5.470;2023-03-01T09:03:50;9.25;;;3.80;;
78618;SDS011;67941;52.506;5.470;2023-03-01T09:06:18;2.15;;;1.92;;
78618;SDS011;67941;52.506;5.470;2023-03-01T09:08:50;7.63;;;3.53;;
78618;SDS011;67941;52.506;5.470;2023-03-01T09:11:20;10.48;;;4.38;;
78618;SDS011;67941;52.506;5.470;2023-03-01T09:13:50;8.90;;;3.60;;
78618;SDS011;67941;52.506;5.470;2023-03-01T09:16:19;10.25;;;4.18;;
78618;SDS011;67941;52.506;5.470;2023-03-01T09:18:49;11.77;;;5.47;;
78618;SDS011;67941;52.506;5.470;2023-03-01T09:21:20;3.17;;;2.20;;
78618;SDS011;67941;52.506;5.470;2023-03-01T09:23:52;7.68;;;3.33;;
78618;SDS011;67941;52.506;5.470;2023-03-01T09:26:22;3.65;;;2.17;;
78618;SDS011;67941;52.506;5.470;2023-03-01T09:28:52;7.70;;;3.30;;
78618;SDS011;67941;52.506;5.470;2023-03-01T09:31:23;10.02;;;4.07;;
78618;SDS011;67941;52.506;5.470;2023-03-01T09:33:52;9.65;;;4.95;;
78618;SDS011;67941;52.506;5.470;2023-03-01T09:36:22;5.55;;;2.78;;
78618;SDS011;67941;52.506;5.470;2023-03-01T09:38:56;7.95;;;3.55;;
78618;SDS011;67941;52.506;5.470;2023-03-01T09:41:42;9.02;;;3.92;;
78618;SDS011;67941;52.506;5.470;2023-03-01T09:44:21;4.60;;;2.15;;
78618;SDS011;67941;52.506;5.470;2023-03-01T09:46:57;9.50;;;2.90;;
78618;SDS011;67941;52.506;5.470;2023-03-01T09:49:27;7.15;;;3.30;;
78618;SDS011;67941;52.506;5.470;2023-03-01T09:52:00;11.13;;;5.00;;
78618;SDS011;67941;52.506;5.470;2023-03-01T09:54:37;10.50;;;5.00;;
78618;SDS011;67941;52.506;5.470;2023-03-01T09:57:11;8.20;;;3.97;;
78618;SDS011;67941;52.506;5.470;2023-03-01T09:59:52;9.00;;;3.60;;
78618;SDS011;67941;52.506;5.470;2023-03-01T10:02:33;11.38;;;4.78;;
78618;SDS011;67941;52.506;5.470;2023-03-01T10:05:14;12.63;;;5.38;;
78618;SDS011;67941;52.506;5.470;2023-03-01T10:07:54;10.63;;;4.22;;
78618;SDS011;67941;52.506;5.470;2023-03-01T10:10:37;8.73;;;4.18;;
78618;SDS011;67941;52.506;5.470;2023-03-01T10:13:10;6.18;;;3.08;;
78618;SDS011;67941;52.506;5.470;2023-03-01T10:15:47;8.88;;;3.88;;
78618;SDS011;67941;52.506;5.470;2023-03-01T10:18:21;11.75;;;5.18;;
78618;SDS011;67941;52.506;5.470;2023-03-01T10:23:23;6.53;;;3.53;;
78618;SDS011;67941;52.506;5.470;2023-03-01T10:26:01;8.25;;;3.15;;
78618;SDS011;67941;52.506;5.470;2023-03-01T10:29:02;9.82;;;4.93;;
78618;SDS011;67941;52.506;5.470;2023-03-01T10:34:13;8.73;;;3.35;;
78618;SDS011;67941;52.506;5.470;2023-03-01T10:36:43;5.95;;;2.33;;
78618;SDS011;67941;52.506;5.470;2023-03-01T10:39:16;8.48;;;3.78;;
78618;SDS011;67941;52.506;5.470;2023-03-01T10:42:00;9.57;;;4.63;;
78618;SDS011;67941;52.506;5.470;2023-03-01T10:44:43;4.47;;;2.65;;
78618;SDS011;67941;52.506;5.470;2023-03-01T10:47:17;6.18;;;2.95;;
78618;SDS011;67941;52.506;5.470;2023-03-01T10:52:55;4.82;;;2.65;;
78618;SDS011;67941;52.506;5.470;2023-03-01T10:55:28;5.43;;;2.20;;
78618;SDS011;67941;52.506;5.470;2023-03-01T10:58:19;6.80;;;3.40;;
78618;SDS011;67941;52.506;5.470;2023-03-01T11:00:49;3.88;;;1.95;;
78618;SDS011;67941;52.506;5.470;2023-03-01T11:03:21;4.07;;;1.95;;
78618;SDS011;67941;52.506;5.470;2023-03-01T11:05:56;5.75;;;2.03;;
78618;SDS011;67941;52.506;5.470;2023-03-01T11:08:40;5.13;;;1.63;;
78618;SDS011;67941;52.506;5.470;2023-03-01T11:11:18;6.30;;;2.72;;
78618;SDS011;67941;52.506;5.470;2023-03-01T11:14:15;8.63;;;2.00;;
78618;SDS011;67941;52.506;5.470;2023-03-01T11:16:45;3.03;;;1.92;;
78618;SDS011;67941;52.506;5.470;2023-03-01T11:19:18;8.43;;;3.85;;
78618;SDS011;67941;52.506;5.470;2023-03-01T11:21:57;9.80;;;3.70;;
78618;SDS011;67941;52.506;5.470;2023-03-01T11:24:31;10.20;;;3.60;;
78618;SDS011;67941;52.506;5.470;2023-03-01T11:27:07;6.50;;;3.13;;
78618;SDS011;67941;52.506;5.470;2023-03-01T11:29:51;7.25;;;3.20;;
78618;SDS011;67941;52.506;5.470;2023-03-01T11:32:24;5.20;;;2.53;;
78618;SDS011;67941;52.506;5.470;2023-03-01T11:34:57;6.50;;;3.10;;
78618;SDS011;67941;52.506;5.470;2023-03-01T11:37:32;5.97;;;2.53;;
78618;SDS011;67941;52.506;5.470;2023-03-01T11:40:10;2.65;;;1.63;;
78618;SDS011;67941;52.506;5.470;2023-03-01T11:42:48;6.03;;;3.25;;
78618;SDS011;67941;52.506;5.470;2023-03-01T11:45:29;8.23;;;2.28;;
78618;SDS011;67941;52.506;5.470;2023-03-01T11:48:13;5.30;;;2.55;;
78618;SDS011;67941;52.506;5.470;2023-03-01T11:51:09;4.72;;;2.10;;
78618;SDS011;67941;52.506;5.470;2023-03-01T11:53:50;5.47;;;2.67;;
78618;SDS011;67941;52.506;5.470;2023-03-01T11:56:28;5.13;;;2.38;;
78618;SDS011;67941;52.506;5.470;2023-03-01T11:59:18;8.38;;;3.53;;
78618;SDS011;67941;52.506;5.470;2023-03-01T12:02:19;6.05;;;3.03;;
78618;SDS011;67941;52.506;5.470;2023-03-01T12:05:18;7.15;;;3.08;;
78618;SDS011;67941;52.506;5.470;2023-03-01T12:08:04;6.15;;;3.00;;
78618;SDS011;67941;52.506;5.470;2023-03-01T12:10:41;6.65;;;2.83;;
78618;SDS011;67941;52.506;5.470;2023-03-01T12:13:22;7.63;;;3.47;;
78618;SDS011;67941;52.506;5.470;2023-03-01T12:16:13;9.73;;;3.38;;
78618;SDS011;67941;52.506;5.470;2023-03-01T12:22:00;9.43;;;3.83;;
78618;SDS011;67941;52.506;5.470;2023-03-01T12:24:44;7.82;;;3.35;;
78618;SDS011;67941;52.506;5.470;2023-03-01T12:27:46;6.25;;;3.15;;
78618;SDS011;67941;52.506;5.470;2023-03-01T12:30:34;8.13;;;3.38;;
78618;SDS011;67941;52.506;5.470;2023-03-01T12:33:22;7.78;;;3.33;;
78618;SDS011;67941;52.506;5.470;2023-03-01T12:38:54;6.80;;;4.55;;
78618;SDS011;67941;52.506;5.470;2023-03-01T12:41:46;4.88;;;2.33;;
78618;SDS011;67941;52.506;5.470;2023-03-01T12:44:25;5.93;;;2.70;;
78618;SDS011;67941;52.506;5.470;2023-03-01T12:47:31;6.32;;;2.90;;
78618;SDS011;67941;52.506;5.470;2023-03-01T12:50:16;5.38;;;2.95;;
78618;SDS011;67941;52.506;5.470;2023-03-01T12:52:51;5.05;;;2.67;;
78618;SDS011;67941;52.506;5.470;2023-03-01T12:55:25;6.97;;;3.63;;
78618;SDS011;67941;52.506;5.470;2023-03-01T12:58:00;9.43;;;3.85;;
78618;SDS011;67941;52.506;5.470;2023-03-01T13:00:38;6.55;;;2.75;;
78618;SDS011;67941;52.506;5.470;2023-03-01T13:03:18;6.30;;;2.47;;
78618;SDS011;67941;52.506;5.470;2023-03-01T13:05:57;7.95;;;3.70;;
78618;SDS011;67941;52.506;5.470;2023-03-01T13:08:39;6.30;;;3.15;;
78618;SDS011;67941;52.506;5.470;2023-03-01T13:11:15;7.38;;;3.08;;
78618;SDS011;67941;52.506;5.470;2023-03-01T13:13:46;8.70;;;3.13;;
78618;SDS011;67941;52.506;5.470;2023-03-01T13:16:21;6.93;;;2.28;;
78618;SDS011;67941;52.506;5.470;2023-03-01T13:19:09;7.65;;;3.17;;
78618;SDS011;67941;52.506;5.470;2023-03-01T13:21:43;5.03;;;2.65;;
78618;SDS011;67941;52.506;5.470;2023-03-01T13:29:48;6.82;;;3.10;;
78618;SDS011;67941;52.506;5.470;2023-03-01T13:32:19;3.40;;;1.52;;
78618;SDS011;67941;52.506;5.470;2023-03-01T13:34:53;5.63;;;3.65;;
78618;SDS011;67941;52.506;5.470;2023-03-01T13:43:26;7.30;;;3.15;;
78618;SDS011;67941;52.506;5.470;2023-03-01T13:45:58;4.68;;;2.88;;
78618;SDS011;67941;52.506;5.470;2023-03-01T13:48:28;3.25;;;1.70;;
78618;SDS011;67941;52.506;5.470;2023-03-01T13:50:58;5.70;;;2.35;;
78618;SDS011;67941;52.506;5.470;2023-03-01T13:53:31;4.32;;;2.25;;
78618;SDS011;67941;52.506;5.470;2023-03-01T13:56:03;3.97;;;2.22;;
78618;SDS011;67941;52.506;5.470;2023-03-01T13:58:47;5.90;;;2.53;;
78618;SDS011;67941;52.506;5.470;2023-03-01T14:01:21;8.35;;;2.45;;
78618;SDS011;67941;52.506;5.470;2023-03-01T14:03:56;5.93;;;2.40;;
78618;SDS011;67941;52.506;5.470;2023-03-01T14:06:26;8.50;;;3.92;;
78618;SDS011;67941;52.506;5.470;2023-03-01T14:09:01;5.90;;;2.40;;
78618;SDS011;67941;52.506;5.470;2023-03-01T14:11:48;7.30;;;2.53;;
78618;SDS011;67941;52.506;5.470;2023-03-01T14:14:38;4.10;;;2.08;;
78618;SDS011;67941;52.506;5.470;2023-03-01T14:17:20;6.07;;;2.95;;
78618;SDS011;67941;52.506;5.470;2023-03-01T14:20:01;8.15;;;2.60;;
78618;SDS011;67941;52.506;5.470;2023-03-01T14:22:36;6.85;;;2.75;;
78618;SDS011;67941;52.506;5.470;2023-03-01T14:25:16;8.15;;;3.35;;
78618;SDS011;67941;52.506;5.470;2023-03-01T14:27:56;5.18;;;2.35;;
78618;SDS011;67941;52.506;5.470;2023-03-01T14:30:36;6.68;;;3.00;;
78618;SDS011;67941;52.506;5.470;2023-03-01T14:33:18;5.57;;;2.50;;
78618;SDS011;67941;52.506;5.470;2023-03-01T14:35:57;8.85;;;3.00;;
78618;SDS011;67941;52.506;5.470;2023-03-01T14:38:31;6.97;;;3.10;;
78618;SDS011;67941;52.506;5.470;2023-03-01T14:41:03;4.85;;;1.70;;
78618;SDS011;67941;52.506;5.470;2023-03-01T14:43:34;5.18;;;2.75;;
78618;SDS011;67941;52.506;5.470;2023-03-01T14:46:15;4.47;;;1.85;;
78618;SDS011;67941;52.506;5.470;2023-03-01T14:48:48;5.60;;;2.22;;
78618;SDS011;67941;52.506;5.470;2023-03-01T14:51:18;4.07;;;2.22;;
78618;SDS011;67941;52.506;5.470;2023-03-01T14:53:47;6.35;;;2.75;;
78618;SDS011;67941;52.506;5.470;2023-03-01T14:56:16;4.50;;;2.55;;
78618;SDS011;67941;52.506;5.470;2023-03-01T14:58:46;10.32;;;2.67;;
78618;SDS011;67941;52.506;5.470;2023-03-01T15:01:22;4.30;;;2.20;;
78618;SDS011;67941;52.506;5.470;2023-03-01T15:03:51;5.32;;;2.20;;
78618;SDS011;67941;52.506;5.470;2023-03-01T15:06:21;5.22;;;2.35;;
78618;SDS011;67941;52.506;5.470;2023-03-01T15:08:52;5.28;;;2.53;;
78618;SDS011;67941;52.506;5.470;2023-03-01T15:11:23;6.20;;;2.55;;
78618;SDS011;67941;52.506;5.470;2023-03-01T15:16:27;6.90;;;2.83;;
78618;SDS011;67941;52.506;5.470;2023-03-01T15:18:59;3.22;;;1.77;;
78618;SDS011;67941;52.506;5.470;2023-03-01T15:21:31;4.90;;;1.95;;
78618;SDS011;67941;52.506;5.470;2023-03-01T15:24:02;5.25;;;3.08;;
78618;SDS011;67941;52.506;5.470;2023-03-01T15:26:45;4.20;;;1.75;;
78618;SDS011;67941;52.506;5.470;2023-03-01T15:29:21;6.00;;;2.63;;
78618;SDS011;67941;52.506;5.470;2023-03-01T15:31:59;6.25;;;2.95;;
78618;SDS011;67941;52.506;5.470;2023-03-01T15:34:32;6.22;;;3.03;;
78618;SDS011;67941;52.506;5.470;2023-03-01T15:37:02;5.05;;;2.25;;
78618;SDS011;67941;52.506;5.470;2023-03-01T15:39:35;6.88;;;3.20;;
78618;SDS011;67941;52.506;5.470;2023-03-01T15:42:07;6.50;;;3.85;;
78618;SDS011;67941;52.506;5.470;2023-03-01T15:44:39;5.38;;;2.50;;
78618;SDS011;67941;52.506;5.470;2023-03-01T15:47:25;5.32;;;2.70;;
78618;SDS011;67941;52.506;5.470;2023-03-01T15:49:57;5.03;;;2.50;;
78618;SDS011;67941;52.506;5.470;2023-03-01T15:52:27;3.85;;;2.00;;
78618;SDS011;67941;52.506;5.470;2023-03-01T15:55:03;3.08;;;1.60;;